Time;durP1;ratioP1;P1;durP2;ratioP2;P2;SDS_P1;SDS_P2;PMS_P1;PMS_P2;Temp;Humidity;BMP_temperature;BMP_pressure;BME280_temperature;BME280_humidity;BME280_pressure;Samples;Min_cycle;Max_cycle;Signal;HPM_P1;HPM_P2
2022/04/11 00:02:15;;;;;;;7.78;3.95;;;;;;;-147.05;100.00;58721.66;5020182;28;20042;-68
2022/04/11 00:04:42;;;;;;;6.63;4.07;;;;;;;-147.05;100.00;58721.66;5021184;28;20057;-67
2022/04/11 00:07:09;;;;;;;7.90;3.78;;;;;;;-147.05;100.00;58721.66;5020047;28;20078;-66
2022/04/11 00:09:37;;;;;;;7.95;4.00;;;;;;;-147.05;100.00;58721.66;5020754;28;20385;-68
2022/04/11 00:12:05;;;;;;;6.63;4.10;;;;;;;-147.05;100.00;58721.66;5020268;28;20056;-67
2022/04/11 00:14:32;;;;;;;9.32;4.95;;;;;;;-147.05;100.00;58721.66;5019921;28;20046;-67
2022/04/11 00:16:59;;;;;;;7.60;4.45;;;;;;;-147.05;100.00;58721.66;5020506;28;20054;-67
2022/04/11 00:19:26;;;;;;;7.07;4.50;;;;;;;-147.05;100.00;58721.66;5020442;28;20065;-67
2022/04/11 00:21:53;;;;;;;7.57;4.22;;;;;;;-147.05;100.00;58721.66;5020133;28;20595;-67
2022/04/11 00:24:20;;;;;;;8.50;4.57;;;;;;;-147.05;100.00;58721.66;5020430;28;20050;-67
2022/04/11 00:26:47;;;;;;;7.15;4.00;;;;;;;-147.05;100.00;58721.66;5020361;28;20783;-67
2022/04/11 00:29:15;;;;;;;8.15;4.57;;;;;;;-147.05;100.00;58721.66;5019514;28;20053;-66
2022/04/11 00:31:44;;;;;;;9.07;4.90;;;;;;;-147.05;100.00;58721.66;5021024;28;20042;-66
2022/04/11 00:34:12;;;;;;;6.18;4.45;;;;;;;-147.05;100.00;58721.66;5036180;28;20043;-67
2022/04/11 00:36:39;;;;;;;10.02;4.88;;;;;;;-147.05;100.00;58721.66;5035133;28;20431;-69
2022/04/11 00:39:06;;;;;;;7.65;5.15;;;;;;;-147.05;100.00;58721.66;5017941;28;20042;-68
2022/04/11 00:41:33;;;;;;;8.68;4.63;;;;;;;-147.05;100.00;58721.66;5019802;28;20039;-69
2022/04/11 00:44:01;;;;;;;7.88;4.60;;;;;;;-147.05;100.00;58721.66;5019720;28;20042;-69
2022/04/11 00:46:28;;;;;;;8.18;4.60;;;;;;;-147.05;100.00;58721.66;5019586;28;20042;-68
2022/04/11 00:48:56;;;;;;;9.95;4.80;;;;;;;-147.05;100.00;58721.66;5020180;28;20858;-67
2022/04/11 00:51:25;;;;;;;9.38;4.57;;;;;;;-147.05;100.00;58721.66;5020127;28;20043;-68
2022/04/11 00:53:54;;;;;;;10.13;5.00;;;;;;;-147.05;100.00;58721.66;5034680;28;20091;-67
2022/04/11 00:56:24;;;;;;;10.43;4.75;;;;;;;-147.05;100.00;58721.66;5022452;28;20043;-67
2022/04/11 00:58:51;;;;;;;11.13;4.80;;;;;;;-147.05;100.00;58721.66;5020030;28;20065;-68
2022/04/11 01:01:18;;;;;;;10.27;4.47;;;;;;;-147.05;100.00;58721.66;5019413;28;20709;-69
2022/04/11 01:03:46;;;;;;;7.28;4.53;;;;;;;-147.05;100.00;58721.66;5020084;28;20045;-68
2022/04/11 01:06:13;;;;;;;8.32;5.03;;;;;;;-147.05;100.00;58721.66;5018442;28;20041;-69
2022/04/11 01:08:41;;;;;;;8.10;4.18;;;;;;;-147.05;100.00;58721.66;5019008;28;20062;-68
2022/04/11 01:11:08;;;;;;;11.30;4.90;;;;;;;-147.05;100.00;58721.66;5034825;28;20172;-68
2022/04/11 01:13:35;;;;;;;9.25;4.68;;;;;;;-147.05;100.00;58721.66;5019950;28;20113;-68
2022/04/11 01:16:05;;;;;;;10.45;4.55;;;;;;;-147.05;100.00;58721.66;5019200;28;20456;-68
2022/04/11 01:18:35;;;;;;;10.38;5.47;;;;;;;-147.05;100.00;58721.66;5027722;28;20622;-69
2022/04/11 01:21:03;;;;;;;7.28;4.93;;;;;;;-147.05;100.00;58721.66;5035051;28;20848;-68
2022/04/11 01:23:31;;;;;;;8.65;5.10;;;;;;;-147.05;100.00;58721.66;5018903;28;20050;-69
2022/04/11 01:25:58;;;;;;;7.68;5.00;;;;;;;-147.05;100.00;58721.66;5019686;28;20052;-69
2022/04/11 01:28:27;;;;;;;8.70;4.78;;;;;;;-147.05;100.00;58721.66;5034969;28;20560;-68
2022/04/11 01:30:56;;;;;;;11.88;5.40;;;;;;;-147.05;100.00;58721.66;5019637;28;20046;-69
2022/04/11 01:33:28;;;;;;;10.05;5.30;;;;;;;-147.05;100.00;58721.66;5017274;28;20042;-71
2022/04/11 01:35:59;;;;;;;7.18;4.60;;;;;;;-147.05;100.00;58721.66;5020121;28;20038;-68
2022/04/11 01:38:26;;;;;;;7.68;5.10;;;;;;;-147.05;100.00;58721.66;5034315;28;20050;-67
2022/04/11 01:40:54;;;;;;;7.65;5.32;;;;;;;-147.05;100.00;58721.66;5017987;28;20074;-68
2022/04/11 01:43:23;;;;;;;8.68;5.30;;;;;;;-147.05;100.00;58721.66;5024666;28;20046;-68
2022/04/11 01:45:52;;;;;;;7.28;4.43;;;;;;;-147.05;100.00;58721.66;5018617;28;20046;-67
2022/04/11 01:48:31;;;;;;;10.55;5.30;;;;;;;-147.05;100.00;58721.66;5031496;28;20081;-66
2022/04/11 01:50:58;;;;;;;7.65;4.88;;;;;;;-147.05;100.00;58721.66;5017489;28;20053;-68
2022/04/11 01:53:26;;;;;;;9.60;5.35;;;;;;;-147.05;100.00;58721.66;5018951;28;20069;-68
2022/04/11 01:55:53;;;;;;;8.73;5.38;;;;;;;-147.05;100.00;58721.66;5018609;28;20097;-66
2022/04/11 01:58:22;;;;;;;8.48;5.43;;;;;;;-147.05;100.00;58721.66;5017767;28;20042;-67
2022/04/11 02:00:50;;;;;;;7.63;5.40;;;;;;;-147.05;100.00;58721.66;5018182;28;20046;-67
2022/04/11 02:03:17;;;;;;;7.97;5.70;;;;;;;-147.05;100.00;58721.66;5018451;28;20038;-68
2022/04/11 02:05:44;;;;;;;8.38;5.43;;;;;;;-147.05;100.00;58721.66;5033361;28;20792;-68
2022/04/11 02:08:11;;;;;;;10.60;5.78;;;;;;;-147.05;100.00;58721.66;5016767;28;20105;-70
2022/04/11 02:10:39;;;;;;;8.82;5.82;;;;;;;-147.05;100.00;58721.66;5033636;28;20606;-69
2022/04/11 02:13:08;;;;;;;7.10;5.05;;;;;;;-147.05;100.00;58721.66;5032931;28;20054;-69
2022/04/11 02:15:35;;;;;;;8.90;5.38;;;;;;;-147.05;100.00;58721.66;5019940;28;20513;-69
2022/04/11 02:18:03;;;;;;;6.88;4.93;;;;;;;-147.05;100.00;58721.66;5017356;28;20125;-71
2022/04/11 02:20:31;;;;;;;9.32;5.32;;;;;;;-147.05;100.00;58721.66;5033706;28;20047;-70
2022/04/11 02:22:59;;;;;;;8.73;5.28;;;;;;;-147.05;100.00;58721.66;5013635;28;20073;-70
2022/04/11 02:25:28;;;;;;;8.25;5.20;;;;;;;-147.05;100.00;58721.66;5018774;28;20050;-69
2022/04/11 02:27:59;;;;;;;8.50;5.15;;;;;;;-147.05;100.00;58721.66;5032591;28;20046;-69
2022/04/11 02:30:28;;;;;;;10.88;5.20;;;;;;;-147.05;100.00;58721.66;5017464;28;20841;-69
2022/04/11 02:32:55;;;;;;;11.50;5.15;;;;;;;-147.05;100.00;58721.66;5020017;28;20094;-68
2022/04/11 02:35:24;;;;;;;9.98;5.32;;;;;;;-147.05;100.00;58721.66;5017166;28;20864;-67
2022/04/11 02:37:52;;;;;;;9.38;5.30;;;;;;;-147.05;100.00;58721.66;5038363;28;20047;-68
2022/04/11 02:40:20;;;;;;;8.40;5.57;;;;;;;-147.05;100.00;58721.66;5033002;28;20050;-67
2022/04/11 02:43:05;;;;;;;9.88;5.43;;;;;;;-147.05;100.00;58721.66;5017929;28;20046;-68
2022/04/11 02:45:36;;;;;;;10.05;5.47;;;;;;;-147.05;100.00;58721.66;5017023;28;20049;-67
2022/04/11 02:48:07;;;;;;;12.63;5.68;;;;;;;-147.05;100.00;58721.66;5034438;28;20051;-68
2022/04/11 02:50:39;;;;;;;11.50;5.95;;;;;;;-147.05;100.00;58721.66;5020167;28;20043;-68
2022/04/11 02:53:10;;;;;;;8.07;5.32;;;;;;;-147.05;100.00;58721.66;5035883;28;20046;-67
2022/04/11 02:55:37;;;;;;;9.50;5.50;;;;;;;-147.05;100.00;58721.66;5038288;28;20038;-68
2022/04/11 02:58:04;;;;;;;7.18;5.00;;;;;;;-147.05;100.00;58721.66;5038024;28;20042;-68
2022/04/11 03:00:32;;;;;;;6.88;5.53;;;;;;;-147.05;100.00;58721.66;5020844;28;20500;-69
2022/04/11 03:02:59;;;;;;;9.60;5.90;;;;;;;-147.05;100.00;58721.66;5018872;28;20046;-71
2022/04/11 03:05:30;;;;;;;10.23;6.00;;;;;;;-147.05;100.00;58721.66;5033017;28;20049;-69
2022/04/11 03:07:58;;;;;;;7.50;5.15;;;;;;;-147.05;100.00;58721.66;5017475;28;20050;-69
2022/04/11 03:10:25;;;;;;;11.70;5.70;;;;;;;-147.05;100.00;58721.66;5018102;28;20053;-70
2022/04/11 03:12:59;;;;;;;7.97;5.75;;;;;;;-147.05;100.00;58721.66;5017458;28;20428;-70
2022/04/11 03:15:26;;;;;;;8.45;5.80;;;;;;;-147.05;100.00;58721.66;5033933;28;20101;-68
2022/04/11 03:17:53;;;;;;;9.93;6.10;;;;;;;-147.05;100.00;58721.66;5017338;28;20035;-67
2022/04/11 03:20:21;;;;;;;10.18;6.00;;;;;;;-147.05;100.00;58721.66;5021995;28;20050;-68
2022/04/11 03:22:53;;;;;;;11.07;6.40;;;;;;;-147.05;100.00;58721.66;5024891;28;20109;-68
2022/04/11 03:25:20;;;;;;;10.45;6.20;;;;;;;-147.05;100.00;58721.66;5017916;28;20054;-69
2022/04/11 03:27:49;;;;;;;9.50;5.53;;;;;;;-147.05;100.00;58721.66;5031469;28;20050;-68
2022/04/11 03:30:18;;;;;;;8.25;5.55;;;;;;;-147.05;100.00;58721.66;5019024;28;20117;-71
2022/04/11 03:32:45;;;;;;;10.00;5.78;;;;;;;-147.05;100.00;58721.66;5034292;28;20768;-69
2022/04/11 03:35:15;;;;;;;7.28;5.47;;;;;;;1.83;68.94;101785.13;5030268;28;20050;-70
2022/04/11 03:37:43;;;;;;;8.73;6.00;;;;;;;1.74;69.21;101782.31;5026504;28;20129;-70
2022/04/11 03:40:17;;;;;;;11.40;5.97;;;;;;;1.67;69.45;101790.84;5028834;28;20097;-70
2022/04/11 03:42:46;;;;;;;8.73;5.97;;;;;;;1.60;69.48;101791.53;5029412;28;20039;-68
2022/04/11 03:45:13;;;;;;;10.60;5.95;;;;;;;1.53;69.57;101793.09;5036781;28;20046;-69
2022/04/11 03:47:42;;;;;;;12.70;6.38;;;;;;;1.48;70.05;101797.34;5028292;28;20148;-68
2022/04/11 03:50:13;;;;;;;11.27;6.32;;;;;;;1.44;70.15;101799.00;5029995;28;20047;-68
2022/04/11 03:52:42;;;;;;;10.90;6.57;;;;;;;1.42;70.19;101799.81;5026321;28;20756;-69
2022/04/11 03:55:10;;;;;;;11.30;6.13;;;;;;;1.37;70.26;101804.91;5013568;28;20038;-69
2022/04/11 03:57:42;;;;;;;11.90;6.50;;;;;;;1.31;70.28;101799.53;5027699;28;20057;-68
2022/04/11 04:00:10;;;;;;;9.90;6.55;;;;;;;1.26;70.23;101802.03;5013857;28;20598;-69
2022/04/11 04:02:46;;;;;;;9.63;6.40;;;;;;;1.22;70.58;101800.22;5022295;28;20077;-69
2022/04/11 04:05:17;;;;;;;8.18;6.22;;;;;;;1.18;70.58;101808.78;5022182;28;20046;-66
2022/04/11 04:07:49;;;;;;;10.23;6.28;;;;;;;1.14;70.62;101794.84;5013141;28;20093;-66
2022/04/11 04:10:17;;;;;;;10.50;6.35;;;;;;;1.08;70.48;101797.28;5014422;28;20122;-66
2022/04/11 04:12:44;;;;;;;9.85;6.55;;;;;;;1.02;70.71;101800.59;5028992;28;20468;-67
2022/04/11 04:15:16;;;;;;;12.73;6.78;;;;;;;-147.05;100.00;58721.66;5012828;28;20050;-68
2022/04/11 04:17:55;;;;;;;10.60;7.03;;;;;;;-147.05;100.00;58721.66;5033728;28;20039;-69
2022/04/11 04:20:26;;;;;;;10.05;6.35;;;;;;;-147.05;100.00;58721.66;5036189;28;20048;-68
2022/04/11 04:22:56;;;;;;;10.80;6.93;;;;;;;-147.05;100.00;58721.66;5019048;28;20058;-69
2022/04/11 04:25:35;;;;;;;11.38;6.45;;;;;;;-147.05;100.00;58721.66;5035325;28;20843;-68
2022/04/11 04:28:03;;;;;;;12.77;6.28;;;;;;;-147.05;100.00;58721.66;5018532;28;20090;-65
2022/04/11 04:30:33;;;;;;;10.85;6.20;;;;;;;-147.05;100.00;58721.66;5019944;28;20080;-66
2022/04/11 04:33:01;;;;;;;11.85;6.82;;;;;;;-147.05;100.00;58721.66;5020986;28;20085;-66
2022/04/11 04:35:28;;;;;;;10.70;6.80;;;;;;;-147.05;100.00;58721.66;5035064;28;20610;-64
2022/04/11 04:37:59;;;;;;;14.93;7.00;;;;;;;-147.05;100.00;58721.66;5008016;28;20042;-66
2022/04/11 04:40:31;;;;;;;11.52;6.22;;;;;;;-147.05;100.00;58721.66;5028885;28;20051;-66
2022/04/11 04:42:58;;;;;;;10.60;6.57;;;;;;;-147.05;100.00;58721.66;5017920;28;20122;-66
2022/04/11 04:45:25;;;;;;;9.30;6.75;;;;;;;-147.05;100.00;58721.66;5019314;28;20081;-66
2022/04/11 04:48:11;;;;;;;11.35;7.03;;;;;;;-147.05;100.00;58721.66;5028591;28;20053;-69
2022/04/11 04:50:40;;;;;;;13.25;7.05;;;;;;;-147.05;100.00;58721.66;5032027;28;20046;-68
2022/04/11 04:53:11;;;;;;;14.10;7.68;;;;;;;-147.05;100.00;58721.66;5014941;28;20504;-69
2022/04/11 04:55:38;;;;;;;14.13;7.25;;;;;;;-147.05;100.00;58721.66;5020348;28;20054;-68
2022/04/11 04:58:07;;;;;;;15.18;6.93;;;;;;;-147.05;100.00;58721.66;5044939;28;20089;-69
2022/04/11 05:00:33;;;;;;;14.60;7.20;;;;;;;-147.05;100.00;58721.66;5039484;28;20863;-68
2022/04/11 05:03:02;;;;;;;13.52;7.68;;;;;;;-147.05;100.00;58721.66;5035507;28;20692;-68
2022/04/11 05:05:30;;;;;;;17.00;7.65;;;;;;;-147.05;100.00;58721.66;5019162;28;20074;-67
2022/04/11 05:07:59;;;;;;;15.55;7.68;;;;;;;-147.05;100.00;58721.66;5020192;28;20046;-66
2022/04/11 05:10:30;;;;;;;11.13;6.75;;;;;;;-147.05;100.00;58721.66;5018138;28;20054;-67
2022/04/11 05:12:57;;;;;;;16.25;7.00;;;;;;;-147.05;100.00;58721.66;5034963;28;20519;-69
2022/04/11 05:15:25;;;;;;;12.23;6.97;;;;;;;-147.05;100.00;58721.66;5035944;28;20043;-69
2022/04/11 05:17:58;;;;;;;11.55;7.18;;;;;;;-147.05;100.00;58721.66;5018350;28;20046;-69
2022/04/11 05:20:27;;;;;;;10.73;6.97;;;;;;;-147.05;100.00;58721.66;5018538;28;20038;-70
2022/04/11 05:22:54;;;;;;;11.90;7.03;;;;;;;-147.05;100.00;58721.66;5019403;28;20046;-68
2022/04/11 05:25:26;;;;;;;10.00;6.93;;;;;;;-147.05;100.00;58721.66;5018325;28;20122;-69
2022/04/11 05:27:54;;;;;;;10.50;6.50;;;;;;;-147.05;100.00;58721.66;5019242;28;20046;-68
2022/04/11 05:30:22;;;;;;;9.73;6.30;;;;;;;-147.05;100.00;58721.66;5032373;28;20038;-68
2022/04/11 05:32:51;;;;;;;9.45;6.20;;;;;;;-147.05;100.00;58721.66;5018288;28;20046;-68
2022/04/11 05:35:18;;;;;;;10.07;5.80;;;;;;;-147.05;100.00;58721.66;5017147;28;20046;-69
2022/04/11 05:37:46;;;;;;;12.52;5.75;;;;;;;-147.05;100.00;58721.66;5016995;28;20050;-68
2022/04/11 05:40:14;;;;;;;10.52;6.00;;;;;;;-147.05;100.00;58721.66;5035406;28;20050;-69
2022/04/11 05:42:44;;;;;;;12.98;6.22;;;;;;;-147.05;100.00;58721.66;5036424;28;20552;-70
2022/04/11 05:45:13;;;;;;;12.43;6.45;;;;;;;-147.05;100.00;58721.66;5016026;28;20038;-69
2022/04/11 05:47:40;;;;;;;10.30;6.60;;;;;;;-147.05;100.00;58721.66;5023450;28;20038;-69
2022/04/11 05:50:09;;;;;;;13.35;6.70;;;;;;;-147.05;100.00;58721.66;5037480;28;20420;-69
2022/04/11 05:52:37;;;;;;;17.17;6.32;;;;;;;-147.05;100.00;58721.66;5031610;28;20845;-69
2022/04/11 05:55:04;;;;;;;12.93;6.93;;;;;;;-147.05;100.00;58721.66;5017293;28;20049;-69
2022/04/11 05:57:31;;;;;;;15.20;6.60;;;;;;;-147.05;100.00;58721.66;5015957;28;20134;-69
2022/04/11 05:59:58;;;;;;;18.52;7.13;;;;;;;-147.05;100.00;58721.66;5017043;28;20042;-69
2022/04/11 06:02:27;;;;;;;16.75;7.03;;;;;;;-147.05;100.00;58721.66;5015379;28;20121;-68
2022/04/11 06:04:54;;;;;;;11.85;6.15;;;;;;;-147.05;100.00;58721.66;5026303;28;20042;-69
2022/04/11 06:07:25;;;;;;;14.55;6.50;;;;;;;-147.05;100.00;58721.66;5015411;28;20042;-69
2022/04/11 06:09:52;;;;;;;12.20;6.63;;;;;;;-147.05;100.00;58721.66;5024150;28;20038;-69
2022/04/11 06:12:22;;;;;;;13.63;6.78;;;;;;;-147.05;100.00;58721.66;5017682;28;20058;-68
2022/04/11 06:14:55;;;;;;;16.75;6.55;;;;;;;-147.05;100.00;58721.66;5023663;28;20062;-69
2022/04/11 06:17:25;;;;;;;14.23;6.72;;;;;;;-147.05;100.00;58721.66;5018496;28;20162;-69
2022/04/11 06:19:55;;;;;;;13.18;6.30;;;;;;;-147.05;100.00;58721.66;5035288;28;20121;-69
2022/04/11 06:22:23;;;;;;;11.10;6.82;;;;;;;-147.05;100.00;58721.66;5020206;28;20043;-68
2022/04/11 06:24:51;;;;;;;19.13;6.85;;;;;;;-147.05;100.00;58721.66;5018677;28;20070;-69
2022/04/11 06:27:19;;;;;;;10.25;6.15;;;;;;;-147.05;100.00;58721.66;5032781;28;20878;-68
2022/04/11 06:29:46;;;;;;;11.73;6.30;;;;;;;-147.05;100.00;58721.66;5018427;28;20038;-69
2022/04/11 06:32:14;;;;;;;15.35;6.75;;;;;;;-147.05;100.00;58721.66;5018285;28;20034;-68
2022/04/11 06:34:41;;;;;;;10.38;6.28;;;;;;;-147.05;100.00;58721.66;5033972;28;20046;-70
2022/04/11 06:37:08;;;;;;;8.05;5.93;;;;;;;-147.05;100.00;58721.66;5017460;28;20070;-68
2022/04/11 06:39:35;;;;;;;12.45;6.00;;;;;;;-147.05;100.00;58721.66;5034275;28;20914;-69
2022/04/11 06:42:03;;;;;;;12.38;6.15;;;;;;;-147.05;100.00;58721.66;5018024;28;20042;-69
2022/04/11 06:44:32;;;;;;;12.40;6.28;;;;;;;-147.05;100.00;58721.66;5034966;28;20046;-69
2022/04/11 06:47:13;;;;;;;10.77;5.80;;;;;;;-147.05;100.00;58721.66;5034574;28;20062;-69
2022/04/11 06:49:40;;;;;;;15.10;6.28;;;;;;;-147.05;100.00;58721.66;5017737;28;20527;-69
2022/04/11 06:52:07;;;;;;;9.43;5.82;;;;;;;-147.05;100.00;58721.66;5017989;28;20501;-68
2022/04/11 06:54:34;;;;;;;29.42;17.10;;;;;;;-147.05;100.00;58721.66;5019146;28;20081;-70
2022/04/11 06:57:02;;;;;;;16.92;6.50;;;;;;;-147.05;100.00;58721.66;5018445;28;20048;-69
2022/04/11 06:59:30;;;;;;;11.82;5.63;;;;;;;-147.05;100.00;58721.66;5019248;28;20109;-70
2022/04/11 07:01:57;;;;;;;11.35;5.78;;;;;;;-147.05;100.00;58721.66;5019065;28;20057;-69
2022/04/11 07:04:24;;;;;;;12.43;7.88;;;;;;;-147.05;100.00;58721.66;5018770;28;20046;-69
2022/04/11 07:06:51;;;;;;;8.70;6.10;;;;;;;-147.05;100.00;58721.66;5018448;28;20069;-69
2022/04/11 07:09:18;;;;;;;15.23;9.27;;;;;;;-147.05;100.00;58721.66;5019205;28;20050;-69
2022/04/11 07:11:45;;;;;;;19.15;10.00;;;;;;;-147.05;100.00;58721.66;5018742;28;20034;-70
2022/04/11 07:14:13;;;;;;;14.43;8.25;;;;;;;-147.05;100.00;58721.66;5015239;28;20154;-69
2022/04/11 07:16:41;;;;;;;12.60;5.80;;;;;;;-147.05;100.00;58721.66;5018838;28;20568;-69
2022/04/11 07:19:08;;;;;;;8.15;5.10;;;;;;;-147.05;100.00;58721.66;4999709;28;20493;-69
2022/04/11 07:21:35;;;;;;;7.50;5.00;;;;;;;-147.05;100.00;58721.66;4999423;28;20075;-68
2022/04/11 07:24:02;;;;;;;8.65;5.20;;;;;;;-147.05;100.00;58721.66;5012609;28;20081;-68
2022/04/11 07:26:29;;;;;;;8.75;4.80;;;;;;;-147.05;100.00;58721.66;5018843;28;20528;-70
2022/04/11 07:28:56;;;;;;;33.95;20.58;;;;;;;-147.05;100.00;58721.66;5019108;28;20827;-68
2022/04/11 07:31:23;;;;;;;16.40;5.93;;;;;;;-147.05;100.00;58721.66;5018981;28;20043;-69
2022/04/11 07:33:51;;;;;;;22.88;7.32;;;;;;;-147.05;100.00;58721.66;5018054;28;20037;-69
2022/04/11 07:36:18;;;;;;;19.95;9.15;;;;;;;-147.05;100.00;58721.66;5018841;28;20046;-69
2022/04/11 07:38:45;;;;;;;16.38;5.68;;;;;;;-147.05;100.00;58721.66;5019131;28;20047;-70
2022/04/11 07:41:12;;;;;;;37.65;25.05;;;;;;;-147.05;100.00;58721.66;5018697;28;20038;-69
2022/04/11 07:43:39;;;;;;;6.78;5.38;;;;;;;-147.05;100.00;58721.66;5018493;28;20046;-69
2022/04/11 07:46:06;;;;;;;14.02;6.55;;;;;;;-147.05;100.00;58721.66;5018246;28;20038;-70
2022/04/11 07:48:33;;;;;;;14.10;5.10;;;;;;;-147.05;100.00;58721.66;5019086;28;20046;-70
2022/04/11 07:51:00;;;;;;;12.65;4.47;;;;;;;-147.05;100.00;58721.66;5018414;28;20042;-68
2022/04/11 07:53:27;;;;;;;6.68;4.38;;;;;;;-147.05;100.00;58721.66;5018375;28;20050;-68
2022/04/11 07:55:55;;;;;;;9.18;5.65;;;;;;;-147.05;100.00;58721.66;5018744;28;20129;-68
2022/04/11 07:58:26;;;;;;;7.93;4.07;;;;;;;-147.05;100.00;58721.66;5017832;28;20137;-70
2022/04/11 08:00:59;;;;;;;7.53;4.53;;;;;;;-147.05;100.00;58721.66;5018233;28;20113;-68
2022/04/11 08:03:27;;;;;;;6.85;4.22;;;;;;;-147.05;100.00;58721.66;5018228;28;20440;-70
2022/04/11 08:05:57;;;;;;;7.28;3.63;;;;;;;-147.05;100.00;58721.66;5018622;28;20101;-69
2022/04/11 08:08:24;;;;;;;9.23;4.35;;;;;;;-147.05;100.00;58721.66;5018179;28;20047;-68
2022/04/11 08:10:51;;;;;;;10.02;4.10;;;;;;;-147.05;100.00;58721.66;5018524;28;20066;-69
2022/04/11 08:13:18;;;;;;;13.98;4.25;;;;;;;-147.05;100.00;58721.66;5017675;28;20069;-69
2022/04/11 08:15:45;;;;;;;9.20;4.30;;;;;;;-147.05;100.00;58721.66;5018257;28;20050;-68
2022/04/11 08:18:12;;;;;;;7.47;3.80;;;;;;;-147.05;100.00;58721.66;5021617;28;20042;-70
2022/04/11 08:20:39;;;;;;;5.28;3.63;;;;;;;-147.05;100.00;58721.66;5022005;28;20238;-68
2022/04/11 08:23:07;;;;;;;7.55;3.75;;;;;;;-147.05;100.00;58721.66;5022461;28;20042;-69
2022/04/11 08:25:34;;;;;;;8.18;3.95;;;;;;;-147.05;100.00;58721.66;5021814;28;20085;-69
2022/04/11 08:28:01;;;;;;;10.13;3.45;;;;;;;-147.05;100.00;58721.66;5022420;28;20051;-69
2022/04/11 08:30:28;;;;;;;10.05;3.70;;;;;;;-147.05;100.00;58721.66;5022643;28;20049;-70
2022/04/11 08:32:56;;;;;;;7.03;3.95;;;;;;;-147.05;100.00;58721.66;5022535;28;20050;-70
2022/04/11 08:35:24;;;;;;;6.20;4.00;;;;;;;-147.05;100.00;58721.66;5022233;28;20034;-69
2022/04/11 08:37:51;;;;;;;12.93;4.25;;;;;;;-147.05;100.00;58721.66;5022442;28;20470;-69
2022/04/11 08:40:19;;;;;;;7.32;3.72;;;;;;;-147.05;100.00;58721.66;5022151;28;20056;-70
2022/04/11 08:42:48;;;;;;;12.95;5.50;;;;;;;-147.05;100.00;58721.66;5022435;28;20695;-70
2022/04/11 08:45:18;;;;;;;8.93;3.20;;;;;;;-147.05;100.00;58721.66;5021666;28;20042;-69
2022/04/11 08:47:47;;;;;;;27.02;5.30;;;;;;;-147.05;100.00;58721.66;5022391;28;20047;-70
2022/04/11 08:50:14;;;;;;;29.70;4.10;;;;;;;-147.05;100.00;58721.66;5021573;28;20050;-69
2022/04/11 08:52:41;;;;;;;8.02;3.00;;;;;;;-147.05;100.00;58721.66;5021301;28;20034;-69
2022/04/11 08:55:10;;;;;;;5.35;3.10;;;;;;;-147.05;100.00;58721.66;5020638;28;20513;-69
2022/04/11 08:57:38;;;;;;;10.98;3.50;;;;;;;-147.05;100.00;58721.66;5021700;28;20042;-70
2022/04/11 09:00:14;;;;;;;19.85;12.30;;;;;;;-147.05;100.00;58721.66;5021992;28;20070;-70
2022/04/11 09:02:42;;;;;;;5.85;3.35;;;;;;;-147.05;100.00;58721.66;5021781;28;20189;-69
2022/04/11 09:05:11;;;;;;;16.02;5.07;;;;;;;-147.05;100.00;58721.66;5020439;28;20050;-69
2022/04/11 09:07:50;;;;;;;5.68;2.38;;;;;;;-147.05;100.00;58721.66;5020955;28;20038;-69
2022/04/11 09:10:32;;;;;;;4.20;2.42;;;;;;;-147.05;100.00;58721.66;5021004;28;20108;-69
2022/04/11 09:13:08;;;;;;;3.88;2.30;;;;;;;-147.05;100.00;58721.66;5032248;28;20045;-69
2022/04/11 09:15:55;;;;;;;9.50;3.10;;;;;;;13.47;43.11;101675.81;5060703;27;20882;-70
2022/04/11 09:18:49;;;;;;;6.13;2.53;;;;;;;13.55;42.74;101678.25;5049073;28;20078;-69
2022/04/11 09:21:17;;;;;;;4.53;2.15;;;;;;;13.64;40.37;101675.31;5050011;28;20092;-69
2022/04/11 09:23:46;;;;;;;7.15;2.50;;;;;;;13.64;39.49;101680.63;5050053;28;20046;-69
2022/04/11 09:26:24;;;;;;;4.15;2.30;;;;;;;13.64;41.08;101680.63;5069523;28;20041;-68
2022/04/11 09:29:04;;;;;;;5.38;3.97;;;;;;;13.75;42.09;101685.56;5052156;28;20101;-69
2022/04/11 09:31:32;;;;;;;9.25;2.85;;;;;;;13.86;41.95;101679.97;5049015;28;20052;-68
2022/04/11 09:34:15;;;;;;;6.63;2.38;;;;;;;13.92;40.24;101679.75;5051388;28;20045;-70
2022/04/11 09:36:54;;;;;;;12.30;6.65;;;;;;;14.04;41.68;101670.56;5069405;28;20041;-69
2022/04/11 09:39:33;;;;;;;7.75;3.25;;;;;;;14.16;41.10;101671.97;5069311;28;20049;-69
2022/04/11 09:42:04;;;;;;;5.90;2.58;;;;;;;14.25;40.15;101673.44;5050172;28;20053;-69
2022/04/11 09:44:34;;;;;;;5.55;2.70;;;;;;;14.38;40.78;101660.66;5053989;28;20049;-69
2022/04/11 09:47:04;;;;;;;36.35;5.13;;;;;;;14.49;40.32;101653.22;5050278;28;20049;-69
2022/04/11 09:49:33;;;;;;;4.45;1.80;;;;;;;14.51;37.44;101637.22;5047842;28;20048;-70
2022/04/11 09:52:09;;;;;;;7.22;2.13;;;;;;;14.45;38.43;101640.97;5052356;28;20751;-69
2022/04/11 09:54:49;;;;;;;6.00;1.80;;;;;;;14.41;36.59;101641.97;5049073;28;20042;-70
2022/04/11 09:57:18;;;;;;;3.40;1.70;;;;;;;14.40;37.80;101642.88;5048597;28;20570;-69
2022/04/11 09:59:46;;;;;;;7.78;2.22;;;;;;;14.41;36.75;101640.19;5049344;28;20100;-70
2022/04/11 10:02:39;;;;;;;4.00;1.85;;;;;;;14.41;35.99;101640.19;5049403;28;20511;-70
2022/04/11 10:05:07;;;;;;;5.10;2.33;;;;;;;14.49;36.87;101633.75;5049259;28;20048;-69
2022/04/11 10:07:36;;;;;;;6.10;1.95;;;;;;;14.70;38.07;101641.00;5045687;28;20042;-70
2022/04/11 10:10:08;;;;;;;33.95;19.25;;;;;;;14.82;36.00;101644.16;5048342;28;20037;-70
2022/04/11 10:12:35;;;;;;;6.30;2.25;;;;;;;14.80;36.05;101635.38;5048078;28;20046;-70
2022/04/11 10:15:03;;;;;;;8.25;3.33;;;;;;;14.85;37.00;101636.94;5048656;28;20062;-69
2022/04/11 10:17:30;;;;;;;31.95;19.98;;;;;;;15.01;37.06;101636.38;5047922;28;20097;-70
2022/04/11 10:19:58;;;;;;;18.42;9.02;;;;;;;15.17;36.71;101628.72;5047632;28;20591;-71
2022/04/11 10:22:33;;;;;;;8.35;4.15;;;;;;;15.31;35.89;101629.09;5048137;28;20780;-70
2022/04/11 10:25:07;;;;;;;5.70;2.35;;;;;;;15.46;36.58;101621.47;5047009;28;20124;-70
2022/04/11 10:27:37;;;;;;;10.10;2.83;;;;;;;15.55;35.74;101622.88;5032512;28;20092;-70
2022/04/11 10:30:29;;;;;;;8.25;2.83;;;;;;;15.65;35.44;101621.59;5034080;28;20050;-70
2022/04/11 10:32:56;;;;;;;5.35;2.20;;;;;;;15.69;35.52;101609.94;5034119;28;20050;-69
2022/04/11 10:35:40;;;;;;;24.25;5.75;;;;;;;15.80;34.52;101625.44;5034010;28;20049;-71
2022/04/11 10:38:10;;;;;;;26.98;15.32;;;;;;;15.87;33.08;101612.81;5033387;28;20038;-71
2022/04/11 10:40:49;;;;;;;14.52;4.35;;;;;;;15.82;34.08;101612.97;5025475;28;20096;-70
2022/04/11 10:43:36;;;;;;;9.65;3.60;;;;;;;15.82;34.41;101608.50;5029399;28;20125;-70
2022/04/11 10:46:04;;;;;;;6.97;3.22;;;;;;;15.82;33.32;101597.84;5034548;28;20044;-70
2022/04/11 10:49:05;;;;;;;15.63;9.45;;;;;;;15.90;34.47;101600.25;5034141;28;20113;-70
2022/04/11 10:51:35;;;;;;;6.85;3.33;;;;;;;15.99;34.42;101597.22;5034124;28;20086;-69
2022/04/11 10:54:19;;;;;;;12.05;3.67;;;;;;;16.10;34.81;101590.59;5032352;28;20112;-70
2022/04/11 10:57:42;;;;;;;5.82;2.80;;;;;;;16.19;34.47;101594.66;5034034;28;20038;-70
2022/04/11 11:00:31;;;;;;;12.05;4.57;;;;;;;16.28;32.81;101595.13;5034014;28;20064;-70
2022/04/11 11:03:01;;;;;;;5.97;2.42;;;;;;;16.29;33.45;101596.84;5033347;28;20050;-70
2022/04/11 11:05:54;;;;;;;5.95;2.70;;;;;;;16.27;32.29;101592.53;5014477;28;20053;-71
2022/04/11 11:08:23;;;;;;;6.32;2.28;;;;;;;16.02;30.83;101590.94;5020900;28;20088;-68
2022/04/11 11:11:18;;;;;;;6.97;2.70;;;;;;;15.87;31.19;101594.19;5033879;28;20113;-70
2022/04/11 11:13:45;;;;;;;17.63;3.88;;;;;;;15.88;33.13;101583.50;5032443;28;20046;-69
2022/04/11 11:16:15;;;;;;;13.32;5.10;;;;;;;16.06;33.28;101583.69;5032656;28;20073;-70
2022/04/11 11:19:01;;;;;;;7.82;3.53;;;;;;;16.10;31.84;101578.16;5033320;28;20557;-70
2022/04/11 11:21:31;;;;;;;8.23;3.00;;;;;;;16.01;31.47;101572.34;5032167;28;20058;-69
2022/04/11 11:24:06;;;;;;;5.00;2.35;;;;;;;15.85;30.37;101562.38;5031667;28;20041;-69